Aviation Digital Data Service (ADDS)

Output produced by METARs form (2022 UTC 18 July 2018)
found at http://www.aviationweather.gov/adds/metars/
 
KSTC 181953Z AUTO 18008KT 10SM 26/16 A3005 RMK AO2 SLP180 T02610156 $
KBRD 181953Z AUTO 15005KT 10SM FEW047 26/16 A3005 RMK AO2 SLP173 T02610156